sensor_id;sensor_type;location;lat;lon;timestamp;pressure;altitude;pressure_sealevel;temperature;humidity
27014;BME280;14556;52.222;4.510;2023-07-24T00:00:54;99617.47;;;16.45;100.00
27014;BME280;14556;52.222;4.510;2023-07-24T00:03:22;99609.91;;;16.47;100.00
27014;BME280;14556;52.222;4.510;2023-07-24T00:05:48;99611.00;;;16.51;100.00
27014;BME280;14556;52.222;4.510;2023-07-24T00:08:15;99604.78;;;16.56;100.00
27014;BME280;14556;52.222;4.510;2023-07-24T00:10:41;99607.47;;;16.51;100.00
27014;BME280;14556;52.222;4.510;2023-07-24T00:13:09;99598.28;;;16.57;100.00
27014;BME280;14556;52.222;4.510;2023-07-24T00:15:38;99601.25;;;16.55;100.00
27014;BME280;14556;52.222;4.510;2023-07-24T00:18:04;99591.84;;;16.53;100.00
27014;BME280;14556;52.222;4.510;2023-07-24T00:20:31;99592.06;;;16.41;100.00
27014;BME280;14556;52.222;4.510;2023-07-24T00:22:58;99597.47;;;16.30;100.00
27014;BME280;14556;52.222;4.510;2023-07-24T00:25:24;99579.38;;;16.21;100.00
27014;BME280;14556;52.222;4.510;2023-07-24T00:27:53;99595.56;;;16.31;100.00
27014;BME280;14556;52.222;4.510;2023-07-24T00:30:22;99583.72;;;16.37;100.00
27014;BME280;14556;52.222;4.510;2023-07-24T00:32:49;99590.72;;;16.28;100.00
27014;BME280;14556;52.222;4.510;2023-07-24T00:35:18;99583.44;;;16.23;100.00
27014;BME280;14556;52.222;4.510;2023-07-24T00:37:47;99569.13;;;16.17;100.00
27014;BME280;14556;52.222;4.510;2023-07-24T00:40:13;99558.63;;;16.21;100.00
27014;BME280;14556;52.222;4.510;2023-07-24T00:42:40;99556.47;;;16.34;100.00
27014;BME280;14556;52.222;4.510;2023-07-24T00:45:10;99558.91;;;16.35;100.00
27014;BME280;14556;52.222;4.510;2023-07-24T00:47:44;99556.75;;;16.48;100.00
27014;BME280;14556;52.222;4.510;2023-07-24T00:50:12;99553.22;;;16.31;100.00
27014;BME280;14556;52.222;4.510;2023-07-24T00:52:42;99566.44;;;16.43;100.00
27014;BME280;14556;52.222;4.510;2023-07-24T00:55:09;99565.13;;;16.51;100.00
27014;BME280;14556;52.222;4.510;2023-07-24T00:57:41;99556.19;;;16.51;100.00
27014;BME280;14556;52.222;4.510;2023-07-24T01:00:10;99548.91;;;16.41;100.00
27014;BME280;14556;52.222;4.510;2023-07-24T01:02:37;99559.16;;;16.39;100.00
27014;BME280;14556;52.222;4.510;2023-07-24T01:05:05;99560.22;;;16.38;100.00
27014;BME280;14556;52.222;4.510;2023-07-24T01:07:32;99560.78;;;16.35;100.00
27014;BME280;14556;52.222;4.510;2023-07-24T01:10:00;99555.66;;;16.38;100.00
27014;BME280;14556;52.222;4.510;2023-07-24T01:12:46;99546.75;;;16.27;100.00
27014;BME280;14556;52.222;4.510;2023-07-24T01:15:33;99561.31;;;16.16;100.00
27014;BME280;14556;52.222;4.510;2023-07-24T01:18:05;99554.53;;;16.13;100.00
27014;BME280;14556;52.222;4.510;2023-07-24T01:20:36;99565.59;;;16.17;100.00
27014;BME280;14556;52.222;4.510;2023-07-24T01:26:01;99551.06;;;16.18;100.00
27014;BME280;14556;52.222;4.510;2023-07-24T01:28:31;99539.19;;;16.19;100.00
27014;BME280;14556;52.222;4.510;2023-07-24T01:30:58;99548.09;;;16.25;100.00
27014;BME280;14556;52.222;4.510;2023-07-24T01:33:25;99547.00;;;16.31;100.00
27014;BME280;14556;52.222;4.510;2023-07-24T01:35:58;99546.75;;;16.27;100.00
27014;BME280;14556;52.222;4.510;2023-07-24T01:38:25;99544.84;;;16.23;100.00
27014;BME280;14556;52.222;4.510;2023-07-24T01:40:54;99546.72;;;16.17;100.00
27014;BME280;14556;52.222;4.510;2023-07-24T01:43:24;99546.19;;;16.20;100.00
27014;BME280;14556;52.222;4.510;2023-07-24T01:45:53;99545.69;;;16.23;100.00
27014;BME280;14556;52.222;4.510;2023-07-24T01:48:19;99526.78;;;16.23;100.00
27014;BME280;14556;52.222;4.510;2023-07-24T01:50:46;99525.16;;;16.22;100.00
27014;BME280;14556;52.222;4.510;2023-07-24T01:53:12;99521.66;;;16.32;100.00
27014;BME280;14556;52.222;4.510;2023-07-24T01:55:40;99532.47;;;16.32;100.00
27014;BME280;14556;52.222;4.510;2023-07-24T01:58:06;99530.53;;;16.22;100.00
27014;BME280;14556;52.222;4.510;2023-07-24T02:00:33;99531.91;;;16.25;100.00
27014;BME280;14556;52.222;4.510;2023-07-24T02:03:01;99525.16;;;16.38;100.00
27014;BME280;14556;52.222;4.510;2023-07-24T02:05:28;99533.53;;;16.31;100.00
27014;BME280;14556;52.222;4.510;2023-07-24T02:07:54;99534.34;;;16.31;100.00
27014;BME280;14556;52.222;4.510;2023-07-24T02:10:21;99511.94;;;16.26;100.00
27014;BME280;14556;52.222;4.510;2023-07-24T02:12:48;99506.53;;;16.21;100.00
27014;BME280;14556;52.222;4.510;2023-07-24T02:15:14;99498.44;;;16.15;100.00
27014;BME280;14556;52.222;4.510;2023-07-24T02:17:41;99503.56;;;16.17;100.00
27014;BME280;14556;52.222;4.510;2023-07-24T02:20:09;99503.28;;;16.24;100.00
27014;BME280;14556;52.222;4.510;2023-07-24T02:22:35;99501.97;;;16.26;100.00
27014;BME280;14556;52.222;4.510;2023-07-24T02:25:03;99507.91;;;16.23;100.00
27014;BME280;14556;52.222;4.510;2023-07-24T02:27:31;99514.09;;;16.24;100.00
27014;BME280;14556;52.222;4.510;2023-07-24T02:29:58;99520.56;;;16.23;100.00
27014;BME280;14556;52.222;4.510;2023-07-24T02:32:24;99514.63;;;16.21;100.00
27014;BME280;14556;52.222;4.510;2023-07-24T02:34:51;99502.50;;;16.23;100.00
27014;BME280;14556;52.222;4.510;2023-07-24T02:37:20;99496.28;;;16.23;100.00
27014;BME280;14556;52.222;4.510;2023-07-24T02:39:47;99499.00;;;16.17;100.00
27014;BME280;14556;52.222;4.510;2023-07-24T02:42:14;99492.22;;;16.15;100.00
27014;BME280;14556;52.222;4.510;2023-07-24T02:44:40;99482.81;;;16.02;100.00
27014;BME280;14556;52.222;4.510;2023-07-24T02:47:07;99475.78;;;16.01;100.00
27014;BME280;14556;52.222;4.510;2023-07-24T02:49:34;99475.53;;;16.07;100.00
27014;BME280;14556;52.222;4.510;2023-07-24T02:52:00;99486.03;;;16.04;100.00
27014;BME280;14556;52.222;4.510;2023-07-24T02:54:30;99501.13;;;16.00;100.00
27014;BME280;14556;52.222;4.510;2023-07-24T02:56:56;99500.00;;;15.95;100.00
27014;BME280;14556;52.222;4.510;2023-07-24T02:59:25;99494.34;;;15.97;100.00
27014;BME280;14556;52.222;4.510;2023-07-24T03:01:52;99489.50;;;15.94;100.00
27014;BME280;14556;52.222;4.510;2023-07-24T03:04:18;99484.91;;;15.89;100.00
27014;BME280;14556;52.222;4.510;2023-07-24T03:06:48;99482.75;;;15.86;100.00
27014;BME280;14556;52.222;4.510;2023-07-24T03:09:15;99475.72;;;15.80;100.00
27014;BME280;14556;52.222;4.510;2023-07-24T03:11:41;99483.53;;;15.81;100.00
27014;BME280;14556;52.222;4.510;2023-07-24T03:14:10;99490.03;;;15.86;100.00
27014;BME280;14556;52.222;4.510;2023-07-24T03:16:40;99485.47;;;15.91;100.00
27014;BME280;14556;52.222;4.510;2023-07-24T03:19:07;99464.94;;;15.75;100.00
27014;BME280;14556;52.222;4.510;2023-07-24T03:21:35;99486.00;;;15.83;100.00
27014;BME280;14556;52.222;4.510;2023-07-24T03:24:02;99481.38;;;15.78;100.00
27014;BME280;14556;52.222;4.510;2023-07-24T03:26:29;99476.00;;;15.83;100.00
27014;BME280;14556;52.222;4.510;2023-07-24T03:28:56;99470.59;;;15.83;100.00
27014;BME280;14556;52.222;4.510;2023-07-24T03:31:23;99469.00;;;15.82;100.00
27014;BME280;14556;52.222;4.510;2023-07-24T03:33:50;99476.81;;;15.89;100.00
27014;BME280;14556;52.222;4.510;2023-07-24T03:36:21;99475.47;;;15.92;100.00
27014;BME280;14556;52.222;4.510;2023-07-24T03:38:50;99485.75;;;15.95;100.00
27014;BME280;14556;52.222;4.510;2023-07-24T03:41:18;99468.19;;;15.87;100.00
27014;BME280;14556;52.222;4.510;2023-07-24T03:43:44;99470.63;;;15.94;100.00
27014;BME280;14556;52.222;4.510;2023-07-24T03:46:11;99471.97;;;15.91;100.00
27014;BME280;14556;52.222;4.510;2023-07-24T03:48:41;99464.69;;;15.92;100.00
27014;BME280;14556;52.222;4.510;2023-07-24T03:51:08;99476.56;;;15.96;100.00
27014;BME280;14556;52.222;4.510;2023-07-24T03:53:34;99476.56;;;15.91;100.00
27014;BME280;14556;52.222;4.510;2023-07-24T03:56:07;99468.47;;;15.86;100.00
27014;BME280;14556;52.222;4.510;2023-07-24T03:58:34;99473.31;;;15.83;100.00
27014;BME280;14556;52.222;4.510;2023-07-24T04:01:00;99477.09;;;15.82;100.00
27014;BME280;14556;52.222;4.510;2023-07-24T04:03:27;99473.84;;;15.86;100.00
27014;BME280;14556;52.222;4.510;2023-07-24T04:05:54;99475.47;;;15.87;100.00
27014;BME280;14556;52.222;4.510;2023-07-24T04:08:20;99471.16;;;15.86;100.00
27014;BME280;14556;52.222;4.510;2023-07-24T04:10:47;99464.66;;;15.76;100.00
27014;BME280;14556;52.222;4.510;2023-07-24T04:13:14;99486.00;;;15.83;100.00
27014;BME280;14556;52.222;4.510;2023-07-24T04:15:40;99470.06;;;15.81;100.00
27014;BME280;14556;52.222;4.510;2023-07-24T04:18:07;99474.94;;;15.85;100.00
27014;BME280;14556;52.222;4.510;2023-07-24T04:20:33;99470.34;;;15.85;100.00
27014;BME280;14556;52.222;4.510;2023-07-24T04:23:00;99483.03;;;15.90;100.00
27014;BME280;14556;52.222;4.510;2023-07-24T04:25:27;99471.97;;;15.86;100.00
27014;BME280;14556;52.222;4.510;2023-07-24T04:27:53;99473.31;;;15.89;100.00
27014;BME280;14556;52.222;4.510;2023-07-24T04:30:23;99482.75;;;15.86;100.00
27014;BME280;14556;52.222;4.510;2023-07-24T04:32:50;99472.25;;;15.79;100.00
27014;BME280;14556;52.222;4.510;2023-07-24T04:35:17;99471.44;;;15.84;100.00
27014;BME280;14556;52.222;4.510;2023-07-24T04:37:47;99470.31;;;15.80;100.00
27014;BME280;14556;52.222;4.510;2023-07-24T04:40:14;99476.81;;;15.84;100.00
27014;BME280;14556;52.222;4.510;2023-07-24T04:42:40;99465.50;;;15.82;100.00
27014;BME280;14556;52.222;4.510;2023-07-24T04:45:08;99477.91;;;15.83;100.00
27014;BME280;14556;52.222;4.510;2023-07-24T04:47:36;99461.97;;;15.71;100.00
27014;BME280;14556;52.222;4.510;2023-07-24T04:50:03;99481.13;;;15.85;100.00
27014;BME280;14556;52.222;4.510;2023-07-24T04:52:30;99471.69;;;15.72;100.00
27014;BME280;14556;52.222;4.510;2023-07-24T04:54:57;99487.31;;;15.80;100.00
27014;BME280;14556;52.222;4.510;2023-07-24T04:57:23;99477.88;;;15.78;100.00
27014;BME280;14556;52.222;4.510;2023-07-24T04:59:50;99471.69;;;15.72;100.00
27014;BME280;14556;52.222;4.510;2023-07-24T05:02:16;99471.94;;;15.70;100.00
27014;BME280;14556;52.222;4.510;2023-07-24T05:04:43;99484.34;;;15.82;100.00
27014;BME280;14556;52.222;4.510;2023-07-24T05:07:10;99466.56;;;15.76;100.00
27014;BME280;14556;52.222;4.510;2023-07-24T05:09:37;99474.66;;;15.86;100.00
27014;BME280;14556;52.222;4.510;2023-07-24T05:12:06;99471.44;;;15.89;100.00
27014;BME280;14556;52.222;4.510;2023-07-24T05:14:33;99469.81;;;15.88;100.00
27014;BME280;14556;52.222;4.510;2023-07-24T05:17:00;99468.75;;;15.89;100.00
27014;BME280;14556;52.222;4.510;2023-07-24T05:19:26;99476.81;;;15.94;100.00
27014;BME280;14556;52.222;4.510;2023-07-24T05:21:53;99467.91;;;15.89;100.00
27014;BME280;14556;52.222;4.510;2023-07-24T05:24:19;99470.06;;;15.92;100.00
27014;BME280;14556;52.222;4.510;2023-07-24T05:26:47;99476.81;;;15.94;100.00
27014;BME280;14556;52.222;4.510;2023-07-24T05:29:15;99468.75;;;15.89;100.00
27014;BME280;14556;52.222;4.510;2023-07-24T05:31:42;99482.50;;;15.98;100.00
27014;BME280;14556;52.222;4.510;2023-07-24T05:34:09;99467.38;;;15.92;100.00
27014;BME280;14556;52.222;4.510;2023-07-24T05:36:37;99473.03;;;15.95;100.00
27014;BME280;14556;52.222;4.510;2023-07-24T05:39:03;99477.69;;;16.00;100.00
27014;BME280;14556;52.222;4.510;2023-07-24T05:41:30;99476.03;;;15.99;100.00
27014;BME280;14556;52.222;4.510;2023-07-24T05:43:57;99474.69;;;15.97;100.00
27014;BME280;14556;52.222;4.510;2023-07-24T05:46:26;99470.06;;;15.97;100.00
27014;BME280;14556;52.222;4.510;2023-07-24T05:48:53;99472.28;;;16.00;100.00
27014;BME280;14556;52.222;4.510;2023-07-24T05:51:20;99473.34;;;15.99;100.00
27014;BME280;14556;52.222;4.510;2023-07-24T05:53:46;99472.78;;;15.92;100.00
27014;BME280;14556;52.222;4.510;2023-07-24T05:56:13;99482.25;;;16.00;100.00
27014;BME280;14556;52.222;4.510;2023-07-24T05:58:40;99478.47;;;16.01;100.00
27014;BME280;14556;52.222;4.510;2023-07-24T06:01:07;99482.25;;;16.05;100.00
27014;BME280;14556;52.222;4.510;2023-07-24T06:03:38;99470.13;;;16.02;100.00
27014;BME280;14556;52.222;4.510;2023-07-24T06:06:08;99477.41;;;16.12;100.00
27014;BME280;14556;52.222;4.510;2023-07-24T06:08:36;99472.56;;;16.14;100.00
27014;BME280;14556;52.222;4.510;2023-07-24T06:11:05;99465.25;;;16.10;100.00
27014;BME280;14556;52.222;4.510;2023-07-24T06:13:32;99475.25;;;16.14;100.00
27014;BME280;14556;52.222;4.510;2023-07-24T06:15:58;99470.38;;;16.16;100.00
27014;BME280;14556;52.222;4.510;2023-07-24T06:18:25;99470.13;;;16.23;100.00
27014;BME280;14556;52.222;4.510;2023-07-24T06:20:53;99477.41;;;16.38;100.00
27014;BME280;14556;52.222;4.510;2023-07-24T06:23:21;99482.50;;;16.45;100.00
27014;BME280;14556;52.222;4.510;2023-07-24T06:25:50;99484.94;;;16.41;100.00
27014;BME280;14556;52.222;4.510;2023-07-24T06:28:18;99490.06;;;16.43;100.00
27014;BME280;14556;52.222;4.510;2023-07-24T06:30:45;99494.41;;;16.44;100.00
27014;BME280;14556;52.222;4.510;2023-07-24T06:33:11;99496.00;;;16.40;100.00
27014;BME280;14556;52.222;4.510;2023-07-24T06:35:38;99498.44;;;16.41;100.00
27014;BME280;14556;52.222;4.510;2023-07-24T06:38:04;99500.06;;;16.42;100.00
27014;BME280;14556;52.222;4.510;2023-07-24T06:40:31;99508.41;;;16.46;100.00
27014;BME280;14556;52.222;4.510;2023-07-24T06:42:58;99509.50;;;16.45;100.00
27014;BME280;14556;52.222;4.510;2023-07-24T06:45:24;99498.16;;;16.48;100.00
27014;BME280;14556;52.222;4.510;2023-07-24T06:47:51;99504.66;;;16.52;100.00
27014;BME280;14556;52.222;4.510;2023-07-24T06:50:18;99500.56;;;16.55;100.00
27014;BME280;14556;52.222;4.510;2023-07-24T06:52:44;99502.50;;;16.54;100.00
27014;BME280;14556;52.222;4.510;2023-07-24T06:55:11;99490.31;;;16.57;100.00
27014;BME280;14556;52.222;4.510;2023-07-24T06:57:37;99501.94;;;16.63;100.00
27014;BME280;14556;52.222;4.510;2023-07-24T07:00:05;99505.72;;;16.67;100.00
27014;BME280;14556;52.222;4.510;2023-07-24T07:02:32;99510.28;;;16.72;100.00
27014;BME280;14556;52.222;4.510;2023-07-24T07:04:59;99492.22;;;16.72;100.00
27014;BME280;14556;52.222;4.510;2023-07-24T07:07:28;99503.00;;;16.77;100.00
27014;BME280;14556;52.222;4.510;2023-07-24T07:09:55;99502.97;;;16.88;100.00
27014;BME280;14556;52.222;4.510;2023-07-24T07:12:22;99494.34;;;16.80;100.00
27014;BME280;14556;52.222;4.510;2023-07-24T07:14:48;99493.25;;;16.82;100.00
27014;BME280;14556;52.222;4.510;2023-07-24T07:17:15;99491.63;;;16.86;100.00
27014;BME280;14556;52.222;4.510;2023-07-24T07:19:46;99509.97;;;16.94;100.00
27014;BME280;14556;52.222;4.510;2023-07-24T07:22:12;99509.16;;;16.94;100.00
27014;BME280;14556;52.222;4.510;2023-07-24T07:24:39;99508.34;;;16.98;100.00
27014;BME280;14556;52.222;4.510;2023-07-24T07:27:06;99506.44;;;16.99;100.00
27014;BME280;14556;52.222;4.510;2023-07-24T07:29:33;99494.81;;;17.03;100.00
27014;BME280;14556;52.222;4.510;2023-07-24T07:31:59;99497.44;;;17.30;100.00
27014;BME280;14556;52.222;4.510;2023-07-24T07:34:26;99502.84;;;17.35;100.00
27014;BME280;14556;52.222;4.510;2023-07-24T07:36:54;99496.84;;;17.43;100.00
27014;BME280;14556;52.222;4.510;2023-07-24T07:39:21;99489.72;;;17.63;100.00
27014;BME280;14556;52.222;4.510;2023-07-24T07:41:48;99482.13;;;17.65;100.00
27014;BME280;14556;52.222;4.510;2023-07-24T07:44:15;99475.59;;;17.71;100.00
27014;BME280;14556;52.222;4.510;2023-07-24T07:46:42;99490.78;;;17.62;100.00
27014;BME280;14556;52.222;4.510;2023-07-24T07:49:11;99476.53;;;17.51;100.00
27014;BME280;14556;52.222;4.510;2023-07-24T07:51:39;99487.03;;;17.58;100.00
27014;BME280;14556;52.222;4.510;2023-07-24T07:54:05;99470.25;;;17.61;100.00
27014;BME280;14556;52.222;4.510;2023-07-24T07:56:32;99471.28;;;17.70;100.00
27014;BME280;14556;52.222;4.510;2023-07-24T07:58:58;99488.84;;;17.73;100.00
27014;BME280;14556;52.222;4.510;2023-07-24T08:01:25;99479.63;;;17.79;100.00
27014;BME280;14556;52.222;4.510;2023-07-24T08:03:52;99470.72;;;17.73;100.00
27014;BME280;14556;52.222;4.510;2023-07-24T08:06:18;99471.78;;;17.72;100.00
27014;BME280;14556;52.222;4.510;2023-07-24T08:08:45;99480.66;;;17.83;100.00
27014;BME280;14556;52.222;4.510;2023-07-24T08:11:11;99476.44;;;18.07;100.00
27014;BME280;14556;52.222;4.510;2023-07-24T08:13:38;99481.56;;;18.14;100.00
27014;BME280;14556;52.222;4.510;2023-07-24T08:16:12;99481.56;;;18.14;100.00
27014;BME280;14556;52.222;4.510;2023-07-24T08:18:46;99473.69;;;18.12;100.00
27014;BME280;14556;52.222;4.510;2023-07-24T08:21:17;99484.75;;;18.21;100.00
27014;BME280;14556;52.222;4.510;2023-07-24T08:23:43;99476.44;;;18.42;100.00
27014;BME280;14556;52.222;4.510;2023-07-24T08:26:10;99483.31;;;18.58;100.00
27014;BME280;14556;52.222;4.510;2023-07-24T08:28:38;99473.25;;;18.64;100.00
27014;BME280;14556;52.222;4.510;2023-07-24T08:31:08;99477.13;;;18.58;100.00
27014;BME280;14556;52.222;4.510;2023-07-24T08:33:36;99476.78;;;18.65;100.00
27014;BME280;14556;52.222;4.510;2023-07-24T08:36:07;99475.03;;;18.74;100.00
27014;BME280;14556;52.222;4.510;2023-07-24T08:38:36;99474.78;;;18.70;100.00
27014;BME280;14556;52.222;4.510;2023-07-24T08:41:08;99482.03;;;18.80;100.00
27014;BME280;14556;52.222;4.510;2023-07-24T08:43:37;99483.38;;;19.02;100.00
27014;BME280;14556;52.222;4.510;2023-07-24T08:46:04;99474.19;;;19.03;100.00
27014;BME280;14556;52.222;4.510;2023-07-24T08:48:33;99486.81;;;19.13;100.00
27014;BME280;14556;52.222;4.510;2023-07-24T08:51:07;99475.41;;;19.16;100.00
27014;BME280;14556;52.222;4.510;2023-07-24T08:53:36;99486.63;;;19.29;100.00
27014;BME280;14556;52.222;4.510;2023-07-24T08:56:04;99476.50;;;19.15;100.00
27014;BME280;14556;52.222;4.510;2023-07-24T08:58:31;99485.41;;;18.91;100.00
27014;BME280;14556;52.222;4.510;2023-07-24T09:01:00;99475.03;;;18.74;100.00
27014;BME280;14556;52.222;4.510;2023-07-24T09:03:27;99482.19;;;18.65;100.00
27014;BME280;14556;52.222;4.510;2023-07-24T09:05:54;99491.03;;;18.70;100.00
27014;BME280;14556;52.222;4.510;2023-07-24T09:08:36;99494.81;;;18.75;100.00
27014;BME280;14556;52.222;4.510;2023-07-24T09:11:04;99491.63;;;18.67;100.00
27014;BME280;14556;52.222;4.510;2023-07-24T09:13:31;99487.88;;;18.63;100.00
27014;BME280;14556;52.222;4.510;2023-07-24T09:15:58;99482.06;;;18.75;100.00
27014;BME280;14556;52.222;4.510;2023-07-24T09:18:38;99478.97;;;19.12;100.00
27014;BME280;14556;52.222;4.510;2023-07-24T09:21:08;99474.34;;;19.56;100.00
27014;BME280;14556;52.222;4.510;2023-07-24T09:23:36;99469.19;;;19.74;100.00
27014;BME280;14556;52.222;4.510;2023-07-24T09:26:07;99452.91;;;19.74;100.00
27014;BME280;14556;52.222;4.510;2023-07-24T09:28:35;99449.81;;;20.19;100.00
27014;BME280;14556;52.222;4.510;2023-07-24T09:31:02;99450.88;;;20.65;100.00
27014;BME280;14556;52.222;4.510;2023-07-24T09:33:37;99448.06;;;20.85;100.00
27014;BME280;14556;52.222;4.510;2023-07-24T09:36:05;99448.34;;;20.69;100.00
27014;BME280;14556;52.222;4.510;2023-07-24T09:38:34;99445.91;;;20.39;100.00
27014;BME280;14556;52.222;4.510;2023-07-24T09:41:01;99451.50;;;20.15;100.00
27014;BME280;14556;52.222;4.510;2023-07-24T09:43:29;99446.91;;;19.96;100.00
27014;BME280;14556;52.222;4.510;2023-07-24T09:46:07;99444.06;;;19.68;100.00
27014;BME280;14556;52.222;4.510;2023-07-24T09:48:35;99454.63;;;19.50;100.00
27014;BME280;14556;52.222;4.510;2023-07-24T09:51:11;99464.94;;;19.29;100.00
27014;BME280;14556;52.222;4.510;2023-07-24T09:53:47;99473.88;;;19.05;100.00
27014;BME280;14556;52.222;4.510;2023-07-24T09:56:17;99474.63;;;18.86;100.00
27014;BME280;14556;52.222;4.510;2023-07-24T09:58:44;99463.97;;;18.70;100.00
27014;BME280;14556;52.222;4.510;2023-07-24T10:01:11;99484.50;;;18.77;100.00
27014;BME280;14556;52.222;4.510;2023-07-24T10:03:47;99473.59;;;18.82;100.00
27014;BME280;14556;52.222;4.510;2023-07-24T10:06:15;99469.25;;;18.81;100.00
27014;BME280;14556;52.222;4.510;2023-07-24T10:08:42;99477.81;;;18.93;100.00
27014;BME280;14556;52.222;4.510;2023-07-24T10:11:12;99470.94;;;19.01;100.00
27014;BME280;14556;52.222;4.510;2023-07-24T10:13:40;99458.72;;;19.04;100.00
27014;BME280;14556;52.222;4.510;2023-07-24T10:16:08;99469.31;;;19.25;100.00
27014;BME280;14556;52.222;4.510;2023-07-24T10:18:43;99460.56;;;19.33;100.00
27014;BME280;14556;52.222;4.510;2023-07-24T10:21:13;99460.13;;;19.45;100.00
27014;BME280;14556;52.222;4.510;2023-07-24T10:23:43;99459.59;;;19.62;100.00
27014;BME280;14556;52.222;4.510;2023-07-24T10:26:10;99475.72;;;19.73;100.00
27014;BME280;14556;52.222;4.510;2023-07-24T10:28:40;99453.97;;;19.59;100.00
27014;BME280;14556;52.222;4.510;2023-07-24T10:31:22;99456.69;;;19.59;100.00
27014;BME280;14556;52.222;4.510;2023-07-24T10:33:50;99461.34;;;19.53;100.00
27014;BME280;14556;52.222;4.510;2023-07-24T10:36:21;99465.03;;;19.43;100.00
27014;BME280;14556;52.222;4.510;2023-07-24T10:38:55;99460.50;;;19.38;100.00
27014;BME280;14556;52.222;4.510;2023-07-24T10:41:22;99458.00;;;19.23;100.00
27014;BME280;14556;52.222;4.510;2023-07-24T10:44:00;99463.84;;;19.30;100.00
27014;BME280;14556;52.222;4.510;2023-07-24T10:46:36;99470.88;;;19.31;100.00
27014;BME280;14556;52.222;4.510;2023-07-24T10:49:03;99471.09;;;19.35;100.00
27014;BME280;14556;52.222;4.510;2023-07-24T10:51:30;99469.78;;;19.51;100.00
27014;BME280;14556;52.222;4.510;2023-07-24T10:54:02;99473.53;;;19.75;100.00
27014;BME280;14556;52.222;4.510;2023-07-24T10:56:28;99469.56;;;19.86;100.00
27014;BME280;14556;52.222;4.510;2023-07-24T10:58:55;99473.59;;;19.89;100.00
27014;BME280;14556;52.222;4.510;2023-07-24T11:01:23;99467.44;;;19.83;100.00
27014;BME280;14556;52.222;4.510;2023-07-24T11:03:50;99474.34;;;19.75;100.00
27014;BME280;14556;52.222;4.510;2023-07-24T11:06:19;99481.38;;;19.76;100.00
27014;BME280;14556;52.222;4.510;2023-07-24T11:08:58;99478.59;;;19.81;100.00
27014;BME280;14556;52.222;4.510;2023-07-24T11:11:33;99481.81;;;19.84;100.00
27014;BME280;14556;52.222;4.510;2023-07-24T11:14:02;99466.75;;;19.91;100.00
27014;BME280;14556;52.222;4.510;2023-07-24T11:16:29;99480.16;;;20.02;100.00
27014;BME280;14556;52.222;4.510;2023-07-24T11:19:00;99485.53;;;20.07;100.00
27014;BME280;14556;52.222;4.510;2023-07-24T11:21:27;99479.88;;;20.03;100.00
27014;BME280;14556;52.222;4.510;2023-07-24T11:23:56;99496.69;;;20.05;100.00
27014;BME280;14556;52.222;4.510;2023-07-24T11:26:25;99476.44;;;19.98;100.00
27014;BME280;14556;52.222;4.510;2023-07-24T11:28:53;99490.47;;;20.05;100.00
27014;BME280;14556;52.222;4.510;2023-07-24T11:31:20;99495.16;;;19.99;100.00
27014;BME280;14556;52.222;4.510;2023-07-24T11:33:52;99481.88;;;19.98;100.00
27014;BME280;14556;52.222;4.510;2023-07-24T11:36:21;99491.28;;;20.05;100.00
27014;BME280;14556;52.222;4.510;2023-07-24T11:38:48;99490.66;;;20.09;100.00
27014;BME280;14556;52.222;4.510;2023-07-24T11:41:16;99503.13;;;20.29;100.00
27014;BME280;14556;52.222;4.510;2023-07-24T11:43:48;99504.28;;;20.23;100.00
27014;BME280;14556;52.222;4.510;2023-07-24T11:46:25;99497.47;;;20.25;100.00
27014;BME280;14556;52.222;4.510;2023-07-24T11:48:53;99504.81;;;20.25;100.00
27014;BME280;14556;52.222;4.510;2023-07-24T11:51:23;99507.81;;;20.23;100.00
27014;BME280;14556;52.222;4.510;2023-07-24T11:53:52;99500.66;;;20.47;100.00
27014;BME280;14556;52.222;4.510;2023-07-24T11:56:19;99509.41;;;20.72;100.00
27014;BME280;14556;52.222;4.510;2023-07-24T11:58:46;99518.09;;;20.74;100.00
27014;BME280;14556;52.222;4.510;2023-07-24T12:01:12;99515.75;;;20.53;100.00
27014;BME280;14556;52.222;4.510;2023-07-24T12:03:40;99507.66;;;20.34;100.00
27014;BME280;14556;52.222;4.510;2023-07-24T12:06:15;99520.22;;;20.29;100.00
27014;BME280;14556;52.222;4.510;2023-07-24T12:08:44;99513.53;;;20.02;100.00
27014;BME280;14556;52.222;4.510;2023-07-24T12:11:17;99523.44;;;19.93;100.00
27014;BME280;14556;52.222;4.510;2023-07-24T12:13:47;99507.97;;;19.93;100.00
27014;BME280;14556;52.222;4.510;2023-07-24T12:16:16;99516.50;;;20.06;100.00
27014;BME280;14556;52.222;4.510;2023-07-24T12:18:45;99501.09;;;20.21;100.00
27014;BME280;14556;52.222;4.510;2023-07-24T12:21:12;99518.50;;;20.34;100.00
27014;BME280;14556;52.222;4.510;2023-07-24T12:23:38;99511.94;;;20.21;100.00
27014;BME280;14556;52.222;4.510;2023-07-24T12:26:05;99516.94;;;20.13;100.00
27014;BME280;14556;52.222;4.510;2023-07-24T12:28:31;99509.19;;;20.07;100.00
27014;BME280;14556;52.222;4.510;2023-07-24T12:30:59;99514.50;;;20.31;100.00
27014;BME280;14556;52.222;4.510;2023-07-24T12:33:25;99522.88;;;20.49;100.00
27014;BME280;14556;52.222;4.510;2023-07-24T12:35:52;99511.69;;;20.36;100.00
27014;BME280;14556;52.222;4.510;2023-07-24T12:38:21;99517.16;;;20.17;100.00
27014;BME280;14556;52.222;4.510;2023-07-24T12:40:48;99520.88;;;20.02;100.00
27014;BME280;14556;52.222;4.510;2023-07-24T12:43:15;99527.06;;;19.88;100.00
27014;BME280;14556;52.222;4.510;2023-07-24T12:45:42;99528.59;;;19.95;100.00
27014;BME280;14556;52.222;4.510;2023-07-24T12:48:08;99515.03;;;19.95;100.00
27014;BME280;14556;52.222;4.510;2023-07-24T12:50:35;99525.59;;;19.77;100.00
27014;BME280;14556;52.222;4.510;2023-07-24T12:53:02;99530.94;;;19.82;100.00
27014;BME280;14556;52.222;4.510;2023-07-24T12:55:33;99522.81;;;19.82;100.00
27014;BME280;14556;52.222;4.510;2023-07-24T12:58:00;99530.41;;;19.61;100.00